sensor_id;sensor_type;location;lat;lon;timestamp;P1;durP1;ratioP1;P2;durP2;ratioP2
70312;SDS011;57723;51.698;5.344;2022-07-22T00:01:12;8.98;;;1.40;;
70312;SDS011;57723;51.698;5.344;2022-07-22T00:03:38;12.50;;;1.40;;
70312;SDS011;57723;51.698;5.344;2022-07-22T00:06:06;6.57;;;1.20;;
70312;SDS011;57723;51.698;5.344;2022-07-22T00:08:51;4.50;;;1.30;;
70312;SDS011;57723;51.698;5.344;2022-07-22T00:11:17;4.70;;;1.30;;
70312;SDS011;57723;51.698;5.344;2022-07-22T00:13:44;5.23;;;1.60;;
70312;SDS011;57723;51.698;5.344;2022-07-22T00:16:13;5.22;;;1.30;;
70312;SDS011;57723;51.698;5.344;2022-07-22T00:18:43;5.37;;;1.17;;
70312;SDS011;57723;51.698;5.344;2022-07-22T00:21:09;5.05;;;1.23;;
70312;SDS011;57723;51.698;5.344;2022-07-22T00:23:35;4.07;;;1.30;;
70312;SDS011;57723;51.698;5.344;2022-07-22T00:26:00;2.47;;;1.10;;
70312;SDS011;57723;51.698;5.344;2022-07-22T00:28:29;5.13;;;1.20;;
70312;SDS011;57723;51.698;5.344;2022-07-22T00:30:56;7.70;;;1.57;;
70312;SDS011;57723;51.698;5.344;2022-07-22T00:33:24;5.63;;;1.30;;
70312;SDS011;57723;51.698;5.344;2022-07-22T00:35:53;8.98;;;1.52;;
70312;SDS011;57723;51.698;5.344;2022-07-22T00:38:18;6.20;;;1.40;;
70312;SDS011;57723;51.698;5.344;2022-07-22T00:40:53;8.07;;;2.47;;
70312;SDS011;57723;51.698;5.344;2022-07-22T00:43:19;3.72;;;1.40;;
70312;SDS011;57723;51.698;5.344;2022-07-22T00:45:45;6.50;;;1.50;;
70312;SDS011;57723;51.698;5.344;2022-07-22T00:48:20;8.07;;;1.50;;
70312;SDS011;57723;51.698;5.344;2022-07-22T00:50:46;4.43;;;1.52;;
70312;SDS011;57723;51.698;5.344;2022-07-22T00:53:12;4.10;;;1.10;;
70312;SDS011;57723;51.698;5.344;2022-07-22T00:55:38;4.72;;;1.13;;
70312;SDS011;57723;51.698;5.344;2022-07-22T00:58:03;3.57;;;1.20;;
70312;SDS011;57723;51.698;5.344;2022-07-22T01:03:19;3.38;;;0.98;;
70312;SDS011;57723;51.698;5.344;2022-07-22T01:05:45;4.47;;;1.10;;
70312;SDS011;57723;51.698;5.344;2022-07-22T01:08:11;3.83;;;0.93;;
70312;SDS011;57723;51.698;5.344;2022-07-22T01:10:46;6.00;;;1.00;;
70312;SDS011;57723;51.698;5.344;2022-07-22T01:13:12;6.82;;;1.10;;
70312;SDS011;57723;51.698;5.344;2022-07-22T01:15:44;6.63;;;1.33;;
70312;SDS011;57723;51.698;5.344;2022-07-22T01:18:10;12.57;;;1.67;;
70312;SDS011;57723;51.698;5.344;2022-07-22T01:20:38;12.20;;;1.73;;
70312;SDS011;57723;51.698;5.344;2022-07-22T01:23:06;7.93;;;2.47;;
70312;SDS011;57723;51.698;5.344;2022-07-22T01:25:35;7.18;;;1.08;;
70312;SDS011;57723;51.698;5.344;2022-07-22T01:28:03;7.15;;;1.38;;
70312;SDS011;57723;51.698;5.344;2022-07-22T01:30:28;10.57;;;1.60;;
70312;SDS011;57723;51.698;5.344;2022-07-22T01:32:54;6.17;;;1.30;;
70312;SDS011;57723;51.698;5.344;2022-07-22T01:35:26;7.97;;;1.45;;
70312;SDS011;57723;51.698;5.344;2022-07-22T01:40:42;6.35;;;1.60;;
70312;SDS011;57723;51.698;5.344;2022-07-22T01:43:10;3.23;;;1.20;;
70312;SDS011;57723;51.698;5.344;2022-07-22T01:45:37;8.48;;;1.23;;
70312;SDS011;57723;51.698;5.344;2022-07-22T01:48:03;5.00;;;1.10;;
70312;SDS011;57723;51.698;5.344;2022-07-22T01:50:29;9.30;;;1.60;;
70312;SDS011;57723;51.698;5.344;2022-07-22T01:52:54;6.13;;;1.40;;
70312;SDS011;57723;51.698;5.344;2022-07-22T01:55:19;5.50;;;1.13;;
70312;SDS011;57723;51.698;5.344;2022-07-22T01:57:45;4.67;;;1.23;;
70312;SDS011;57723;51.698;5.344;2022-07-22T02:00:13;4.90;;;1.30;;
70312;SDS011;57723;51.698;5.344;2022-07-22T02:02:39;7.57;;;1.10;;
70312;SDS011;57723;51.698;5.344;2022-07-22T02:05:08;11.27;;;1.97;;
70312;SDS011;57723;51.698;5.344;2022-07-22T02:07:43;3.65;;;1.05;;
70312;SDS011;57723;51.698;5.344;2022-07-22T02:10:08;9.77;;;1.60;;
70312;SDS011;57723;51.698;5.344;2022-07-22T02:12:33;9.07;;;1.40;;
70312;SDS011;57723;51.698;5.344;2022-07-22T02:15:01;4.67;;;1.50;;
70312;SDS011;57723;51.698;5.344;2022-07-22T02:17:44;11.48;;;1.75;;
70312;SDS011;57723;51.698;5.344;2022-07-22T02:20:10;5.25;;;1.30;;
70312;SDS011;57723;51.698;5.344;2022-07-22T02:22:39;9.52;;;1.60;;
70312;SDS011;57723;51.698;5.344;2022-07-22T02:25:04;7.20;;;1.73;;
70312;SDS011;57723;51.698;5.344;2022-07-22T02:27:34;3.87;;;1.07;;
70312;SDS011;57723;51.698;5.344;2022-07-22T02:29:59;3.30;;;1.20;;
70312;SDS011;57723;51.698;5.344;2022-07-22T02:32:27;2.97;;;1.17;;
70312;SDS011;57723;51.698;5.344;2022-07-22T02:35:11;5.20;;;1.20;;
70312;SDS011;57723;51.698;5.344;2022-07-22T02:37:36;6.83;;;1.40;;
70312;SDS011;57723;51.698;5.344;2022-07-22T02:40:04;6.63;;;1.50;;
70312;SDS011;57723;51.698;5.344;2022-07-22T02:42:38;5.88;;;1.60;;
70312;SDS011;57723;51.698;5.344;2022-07-22T02:45:04;8.00;;;1.50;;
70312;SDS011;57723;51.698;5.344;2022-07-22T02:47:29;5.70;;;1.10;;
70312;SDS011;57723;51.698;5.344;2022-07-22T02:49:55;6.23;;;1.50;;
70312;SDS011;57723;51.698;5.344;2022-07-22T02:52:21;6.97;;;1.50;;
70312;SDS011;57723;51.698;5.344;2022-07-22T02:54:46;7.57;;;1.27;;
70312;SDS011;57723;51.698;5.344;2022-07-22T02:57:37;4.27;;;1.20;;
70312;SDS011;57723;51.698;5.344;2022-07-22T03:00:09;4.05;;;1.13;;
70312;SDS011;57723;51.698;5.344;2022-07-22T03:02:38;6.10;;;1.10;;
70312;SDS011;57723;51.698;5.344;2022-07-22T03:05:25;4.65;;;1.30;;
70312;SDS011;57723;51.698;5.344;2022-07-22T03:07:50;5.80;;;1.13;;
70312;SDS011;57723;51.698;5.344;2022-07-22T03:10:19;5.90;;;1.40;;
70312;SDS011;57723;51.698;5.344;2022-07-22T03:12:44;4.70;;;1.15;;
70312;SDS011;57723;51.698;5.344;2022-07-22T03:15:10;9.23;;;1.40;;
70312;SDS011;57723;51.698;5.344;2022-07-22T03:17:39;6.80;;;1.40;;
70312;SDS011;57723;51.698;5.344;2022-07-22T03:20:06;5.18;;;1.30;;
70312;SDS011;57723;51.698;5.344;2022-07-22T03:22:34;9.48;;;1.50;;
70312;SDS011;57723;51.698;5.344;2022-07-22T03:25:00;5.78;;;1.52;;
70312;SDS011;57723;51.698;5.344;2022-07-22T03:27:26;12.10;;;1.50;;
70312;SDS011;57723;51.698;5.344;2022-07-22T03:29:51;8.60;;;1.50;;
70312;SDS011;57723;51.698;5.344;2022-07-22T03:32:20;12.07;;;1.42;;
70312;SDS011;57723;51.698;5.344;2022-07-22T03:34:52;10.23;;;1.43;;
70312;SDS011;57723;51.698;5.344;2022-07-22T03:37:26;10.73;;;1.52;;
70312;SDS011;57723;51.698;5.344;2022-07-22T03:39:55;14.88;;;1.80;;
70312;SDS011;57723;51.698;5.344;2022-07-22T03:42:26;14.93;;;1.97;;
70312;SDS011;57723;51.698;5.344;2022-07-22T03:44:52;5.82;;;1.83;;
70312;SDS011;57723;51.698;5.344;2022-07-22T03:47:24;10.02;;;1.58;;
70312;SDS011;57723;51.698;5.344;2022-07-22T03:49:49;7.55;;;1.20;;
70312;SDS011;57723;51.698;5.344;2022-07-22T03:52:21;7.22;;;1.40;;
70312;SDS011;57723;51.698;5.344;2022-07-22T03:54:54;15.23;;;1.83;;
70312;SDS011;57723;51.698;5.344;2022-07-22T03:57:28;18.83;;;1.60;;
70312;SDS011;57723;51.698;5.344;2022-07-22T03:59:59;6.70;;;1.00;;
70312;SDS011;57723;51.698;5.344;2022-07-22T04:02:25;6.85;;;1.10;;
70312;SDS011;57723;51.698;5.344;2022-07-22T04:04:50;11.03;;;1.27;;
70312;SDS011;57723;51.698;5.344;2022-07-22T04:07:15;4.73;;;1.20;;
70312;SDS011;57723;51.698;5.344;2022-07-22T04:09:41;11.23;;;1.47;;
70312;SDS011;57723;51.698;5.344;2022-07-22T04:12:06;6.00;;;1.37;;
70312;SDS011;57723;51.698;5.344;2022-07-22T04:14:50;9.48;;;1.13;;
70312;SDS011;57723;51.698;5.344;2022-07-22T04:17:21;9.93;;;1.30;;
70312;SDS011;57723;51.698;5.344;2022-07-22T04:19:48;8.32;;;1.55;;
70312;SDS011;57723;51.698;5.344;2022-07-22T04:22:13;6.15;;;1.20;;
70312;SDS011;57723;51.698;5.344;2022-07-22T04:27:25;11.07;;;2.30;;
70312;SDS011;57723;51.698;5.344;2022-07-22T04:29:50;8.98;;;1.55;;
70312;SDS011;57723;51.698;5.344;2022-07-22T04:32:20;6.75;;;1.45;;
70312;SDS011;57723;51.698;5.344;2022-07-22T04:34:45;12.25;;;1.48;;
70312;SDS011;57723;51.698;5.344;2022-07-22T04:37:13;14.37;;;1.57;;
70312;SDS011;57723;51.698;5.344;2022-07-22T04:39:39;14.83;;;1.93;;
70312;SDS011;57723;51.698;5.344;2022-07-22T04:42:05;22.50;;;2.25;;
70312;SDS011;57723;51.698;5.344;2022-07-22T04:44:36;18.08;;;1.92;;
70312;SDS011;57723;51.698;5.344;2022-07-22T04:49:40;16.77;;;2.00;;
70312;SDS011;57723;51.698;5.344;2022-07-22T04:52:07;14.23;;;1.83;;
70312;SDS011;57723;51.698;5.344;2022-07-22T04:54:36;18.50;;;1.87;;
70312;SDS011;57723;51.698;5.344;2022-07-22T04:57:03;18.77;;;2.17;;
70312;SDS011;57723;51.698;5.344;2022-07-22T04:59:31;36.40;;;3.10;;
70312;SDS011;57723;51.698;5.344;2022-07-22T05:01:57;26.08;;;2.00;;
70312;SDS011;57723;51.698;5.344;2022-07-22T05:04:24;14.32;;;1.67;;
70312;SDS011;57723;51.698;5.344;2022-07-22T05:06:50;23.03;;;2.90;;
70312;SDS011;57723;51.698;5.344;2022-07-22T05:09:16;24.15;;;2.63;;
70312;SDS011;57723;51.698;5.344;2022-07-22T05:12:05;28.65;;;2.50;;
70312;SDS011;57723;51.698;5.344;2022-07-22T05:14:36;23.95;;;2.10;;
70312;SDS011;57723;51.698;5.344;2022-07-22T05:17:02;24.20;;;2.53;;
70312;SDS011;57723;51.698;5.344;2022-07-22T05:19:27;17.20;;;2.03;;
70312;SDS011;57723;51.698;5.344;2022-07-22T05:21:53;18.87;;;2.37;;
70312;SDS011;57723;51.698;5.344;2022-07-22T05:24:24;11.17;;;1.70;;
70312;SDS011;57723;51.698;5.344;2022-07-22T05:26:55;18.15;;;2.05;;
70312;SDS011;57723;51.698;5.344;2022-07-22T05:29:21;15.02;;;2.42;;
70312;SDS011;57723;51.698;5.344;2022-07-22T05:31:47;13.77;;;2.20;;
70312;SDS011;57723;51.698;5.344;2022-07-22T05:34:22;10.25;;;1.75;;
70312;SDS011;57723;51.698;5.344;2022-07-22T05:36:48;13.77;;;2.13;;
70312;SDS011;57723;51.698;5.344;2022-07-22T05:39:13;15.83;;;2.17;;
70312;SDS011;57723;51.698;5.344;2022-07-22T05:41:40;18.23;;;2.17;;
70312;SDS011;57723;51.698;5.344;2022-07-22T05:44:12;9.32;;;2.05;;
70312;SDS011;57723;51.698;5.344;2022-07-22T05:46:40;9.93;;;2.13;;
70312;SDS011;57723;51.698;5.344;2022-07-22T05:49:11;11.20;;;2.03;;
70312;SDS011;57723;51.698;5.344;2022-07-22T05:51:37;12.23;;;2.03;;
70312;SDS011;57723;51.698;5.344;2022-07-22T05:54:22;13.07;;;2.63;;
70312;SDS011;57723;51.698;5.344;2022-07-22T05:56:57;9.53;;;2.33;;
70312;SDS011;57723;51.698;5.344;2022-07-22T05:59:22;8.88;;;2.22;;
70312;SDS011;57723;51.698;5.344;2022-07-22T06:01:48;9.93;;;2.40;;
70312;SDS011;57723;51.698;5.344;2022-07-22T06:04:18;10.40;;;2.08;;
70312;SDS011;57723;51.698;5.344;2022-07-22T06:06:47;8.90;;;1.80;;
70312;SDS011;57723;51.698;5.344;2022-07-22T06:09:17;10.18;;;1.92;;
70312;SDS011;57723;51.698;5.344;2022-07-22T06:11:43;12.37;;;2.30;;
70312;SDS011;57723;51.698;5.344;2022-07-22T06:17:08;10.70;;;1.90;;
70312;SDS011;57723;51.698;5.344;2022-07-22T06:19:33;11.43;;;1.73;;
70312;SDS011;57723;51.698;5.344;2022-07-22T06:22:05;9.15;;;1.60;;
70312;SDS011;57723;51.698;5.344;2022-07-22T06:24:43;5.40;;;1.50;;
70312;SDS011;57723;51.698;5.344;2022-07-22T06:27:17;7.72;;;1.55;;
70312;SDS011;57723;51.698;5.344;2022-07-22T06:29:50;5.07;;;1.50;;
70312;SDS011;57723;51.698;5.344;2022-07-22T06:32:19;5.18;;;1.35;;
70312;SDS011;57723;51.698;5.344;2022-07-22T06:34:55;6.88;;;1.50;;
70312;SDS011;57723;51.698;5.344;2022-07-22T06:37:20;6.47;;;1.40;;
70312;SDS011;57723;51.698;5.344;2022-07-22T06:39:46;7.75;;;1.35;;
70312;SDS011;57723;51.698;5.344;2022-07-22T06:42:13;4.27;;;1.57;;
70312;SDS011;57723;51.698;5.344;2022-07-22T06:47:36;4.93;;;1.15;;
70312;SDS011;57723;51.698;5.344;2022-07-22T06:50:04;3.65;;;1.00;;
70312;SDS011;57723;51.698;5.344;2022-07-22T06:52:46;5.32;;;1.58;;
70312;SDS011;57723;51.698;5.344;2022-07-22T06:58:03;4.32;;;1.42;;
70312;SDS011;57723;51.698;5.344;2022-07-22T07:00:30;3.53;;;1.10;;
70312;SDS011;57723;51.698;5.344;2022-07-22T07:02:57;3.20;;;0.93;;
70312;SDS011;57723;51.698;5.344;2022-07-22T07:05:26;5.55;;;1.30;;
70312;SDS011;57723;51.698;5.344;2022-07-22T07:07:52;3.53;;;1.10;;
70312;SDS011;57723;51.698;5.344;2022-07-22T07:10:35;4.47;;;1.10;;
70312;SDS011;57723;51.698;5.344;2022-07-22T07:13:03;3.40;;;1.30;;
70312;SDS011;57723;51.698;5.344;2022-07-22T07:15:41;4.93;;;1.30;;
70312;SDS011;57723;51.698;5.344;2022-07-22T07:18:10;3.50;;;1.40;;
70312;SDS011;57723;51.698;5.344;2022-07-22T07:20:35;5.03;;;1.30;;
70312;SDS011;57723;51.698;5.344;2022-07-22T07:23:06;3.08;;;1.50;;
70312;SDS011;57723;51.698;5.344;2022-07-22T07:25:48;4.95;;;1.75;;
70312;SDS011;57723;51.698;5.344;2022-07-22T07:28:13;2.97;;;1.60;;
70312;SDS011;57723;51.698;5.344;2022-07-22T07:30:38;4.27;;;1.63;;
70312;SDS011;57723;51.698;5.344;2022-07-22T07:33:03;3.93;;;1.50;;
70312;SDS011;57723;51.698;5.344;2022-07-22T07:35:31;4.27;;;1.67;;
70312;SDS011;57723;51.698;5.344;2022-07-22T07:37:56;4.40;;;1.67;;
70312;SDS011;57723;51.698;5.344;2022-07-22T07:40:21;3.00;;;1.50;;
70312;SDS011;57723;51.698;5.344;2022-07-22T07:42:47;3.53;;;1.60;;
70312;SDS011;57723;51.698;5.344;2022-07-22T07:45:12;3.83;;;1.40;;
70312;SDS011;57723;51.698;5.344;2022-07-22T07:47:37;5.37;;;1.60;;
70312;SDS011;57723;51.698;5.344;2022-07-22T07:50:03;3.83;;;1.60;;
70312;SDS011;57723;51.698;5.344;2022-07-22T07:52:29;3.53;;;1.38;;
70312;SDS011;57723;51.698;5.344;2022-07-22T07:54:54;3.83;;;1.50;;
70312;SDS011;57723;51.698;5.344;2022-07-22T07:57:20;3.47;;;1.77;;
70312;SDS011;57723;51.698;5.344;2022-07-22T07:59:45;4.37;;;1.80;;
70312;SDS011;57723;51.698;5.344;2022-07-22T08:02:10;4.18;;;1.63;;
70312;SDS011;57723;51.698;5.344;2022-07-22T08:04:36;3.17;;;1.60;;
70312;SDS011;57723;51.698;5.344;2022-07-22T08:07:01;3.37;;;1.70;;
70312;SDS011;57723;51.698;5.344;2022-07-22T08:09:27;4.85;;;1.58;;
70312;SDS011;57723;51.698;5.344;2022-07-22T08:11:52;4.57;;;1.70;;
70312;SDS011;57723;51.698;5.344;2022-07-22T08:14:17;3.70;;;1.80;;
70312;SDS011;57723;51.698;5.344;2022-07-22T08:16:42;4.70;;;1.70;;
70312;SDS011;57723;51.698;5.344;2022-07-22T08:19:08;3.97;;;1.70;;
70312;SDS011;57723;51.698;5.344;2022-07-22T08:21:33;3.13;;;1.47;;
70312;SDS011;57723;51.698;5.344;2022-07-22T08:23:58;4.40;;;1.60;;
70312;SDS011;57723;51.698;5.344;2022-07-22T08:26:23;8.27;;;2.03;;
70312;SDS011;57723;51.698;5.344;2022-07-22T08:28:48;7.83;;;1.70;;
70312;SDS011;57723;51.698;5.344;2022-07-22T08:31:14;2.63;;;1.40;;
70312;SDS011;57723;51.698;5.344;2022-07-22T08:33:39;3.40;;;1.40;;
70312;SDS011;57723;51.698;5.344;2022-07-22T08:36:04;5.70;;;1.53;;
70312;SDS011;57723;51.698;5.344;2022-07-22T08:38:30;5.80;;;1.90;;
70312;SDS011;57723;51.698;5.344;2022-07-22T08:40:55;6.53;;;2.28;;
70312;SDS011;57723;51.698;5.344;2022-07-22T08:43:21;4.20;;;2.10;;
70312;SDS011;57723;51.698;5.344;2022-07-22T08:45:46;5.90;;;2.47;;
70312;SDS011;57723;51.698;5.344;2022-07-22T08:48:13;4.87;;;2.60;;
70312;SDS011;57723;51.698;5.344;2022-07-22T08:50:38;6.67;;;2.77;;
70312;SDS011;57723;51.698;5.344;2022-07-22T08:53:03;6.70;;;3.30;;
70312;SDS011;57723;51.698;5.344;2022-07-22T08:55:29;7.97;;;3.00;;
70312;SDS011;57723;51.698;5.344;2022-07-22T08:57:54;7.63;;;3.30;;
70312;SDS011;57723;51.698;5.344;2022-07-22T09:00:21;8.57;;;3.00;;
70312;SDS011;57723;51.698;5.344;2022-07-22T09:02:47;7.72;;;3.03;;
70312;SDS011;57723;51.698;5.344;2022-07-22T09:05:13;6.37;;;2.87;;
70312;SDS011;57723;51.698;5.344;2022-07-22T09:07:40;8.00;;;3.03;;
70312;SDS011;57723;51.698;5.344;2022-07-22T09:10:06;5.70;;;3.05;;
70312;SDS011;57723;51.698;5.344;2022-07-22T09:12:32;8.15;;;3.00;;
70312;SDS011;57723;51.698;5.344;2022-07-22T09:14:58;6.83;;;2.60;;
70312;SDS011;57723;51.698;5.344;2022-07-22T09:19:53;5.33;;;2.90;;
70312;SDS011;57723;51.698;5.344;2022-07-22T09:27:43;4.25;;;2.38;;
70312;SDS011;57723;51.698;5.344;2022-07-22T09:30:16;7.40;;;2.60;;
70312;SDS011;57723;51.698;5.344;2022-07-22T09:32:41;4.55;;;2.60;;
70312;SDS011;57723;51.698;5.344;2022-07-22T09:35:07;4.72;;;2.53;;
70312;SDS011;57723;51.698;5.344;2022-07-22T09:37:32;6.13;;;2.80;;
70312;SDS011;57723;51.698;5.344;2022-07-22T09:40:14;6.23;;;2.87;;
70312;SDS011;57723;51.698;5.344;2022-07-22T09:42:52;4.55;;;2.65;;
70312;SDS011;57723;51.698;5.344;2022-07-22T09:45:19;4.88;;;2.92;;
70312;SDS011;57723;51.698;5.344;2022-07-22T09:47:44;5.80;;;2.90;;
70312;SDS011;57723;51.698;5.344;2022-07-22T09:50:16;6.63;;;2.60;;
70312;SDS011;57723;51.698;5.344;2022-07-22T09:52:42;4.13;;;2.50;;
70312;SDS011;57723;51.698;5.344;2022-07-22T09:55:08;5.73;;;2.73;;
70312;SDS011;57723;51.698;5.344;2022-07-22T09:57:33;5.43;;;2.77;;
70312;SDS011;57723;51.698;5.344;2022-07-22T09:59:58;5.13;;;2.80;;
70312;SDS011;57723;51.698;5.344;2022-07-22T10:02:24;4.63;;;2.50;;
70312;SDS011;57723;51.698;5.344;2022-07-22T10:04:49;4.20;;;2.30;;
70312;SDS011;57723;51.698;5.344;2022-07-22T10:07:15;7.43;;;2.53;;
70312;SDS011;57723;51.698;5.344;2022-07-22T10:09:40;4.22;;;2.60;;
70312;SDS011;57723;51.698;5.344;2022-07-22T10:12:08;6.40;;;2.97;;
70312;SDS011;57723;51.698;5.344;2022-07-22T10:14:33;4.47;;;2.57;;
70312;SDS011;57723;51.698;5.344;2022-07-22T10:17:02;5.63;;;2.67;;
70312;SDS011;57723;51.698;5.344;2022-07-22T10:19:27;4.93;;;2.37;;
70312;SDS011;57723;51.698;5.344;2022-07-22T10:21:53;6.90;;;2.57;;
70312;SDS011;57723;51.698;5.344;2022-07-22T10:24:18;8.17;;;3.30;;
70312;SDS011;57723;51.698;5.344;2022-07-22T10:26:47;7.53;;;2.60;;
70312;SDS011;57723;51.698;5.344;2022-07-22T10:29:25;6.13;;;2.63;;
70312;SDS011;57723;51.698;5.344;2022-07-22T10:32:11;9.98;;;3.22;;
70312;SDS011;57723;51.698;5.344;2022-07-22T10:34:37;13.27;;;4.00;;
70312;SDS011;57723;51.698;5.344;2022-07-22T10:37:02;15.37;;;3.67;;
70312;SDS011;57723;51.698;5.344;2022-07-22T10:39:27;11.23;;;3.80;;
70312;SDS011;57723;51.698;5.344;2022-07-22T10:41:52;9.53;;;3.53;;
70312;SDS011;57723;51.698;5.344;2022-07-22T10:44:45;11.90;;;3.63;;
70312;SDS011;57723;51.698;5.344;2022-07-22T10:47:02;14.32;;;3.80;;
70312;SDS011;57723;51.698;5.344;2022-07-22T10:49:28;9.37;;;3.73;;
70312;SDS011;57723;51.698;5.344;2022-07-22T10:52:12;6.63;;;3.60;;
70312;SDS011;57723;51.698;5.344;2022-07-22T10:57:31;6.40;;;3.33;;
70312;SDS011;57723;51.698;5.344;2022-07-22T11:00:03;9.10;;;3.33;;
70312;SDS011;57723;51.698;5.344;2022-07-22T11:02:28;5.85;;;2.78;;
70312;SDS011;57723;51.698;5.344;2022-07-22T11:04:53;7.63;;;3.10;;
70312;SDS011;57723;51.698;5.344;2022-07-22T11:07:23;5.82;;;3.10;;
70312;SDS011;57723;51.698;5.344;2022-07-22T11:09:48;8.40;;;2.72;;
70312;SDS011;57723;51.698;5.344;2022-07-22T11:12:14;4.27;;;2.80;;
70312;SDS011;57723;51.698;5.344;2022-07-22T11:14:39;5.40;;;2.57;;
70312;SDS011;57723;51.698;5.344;2022-07-22T11:17:08;8.07;;;3.13;;
70312;SDS011;57723;51.698;5.344;2022-07-22T11:19:34;5.57;;;2.78;;
70312;SDS011;57723;51.698;5.344;2022-07-22T11:22:12;4.90;;;2.75;;
70312;SDS011;57723;51.698;5.344;2022-07-22T11:24:42;9.63;;;2.80;;
70312;SDS011;57723;51.698;5.344;2022-07-22T11:29:57;3.83;;;2.57;;
70312;SDS011;57723;51.698;5.344;2022-07-22T11:32:29;6.78;;;2.90;;
70312;SDS011;57723;51.698;5.344;2022-07-22T11:34:59;4.97;;;2.72;;
70312;SDS011;57723;51.698;5.344;2022-07-22T11:37:28;4.43;;;2.60;;
70312;SDS011;57723;51.698;5.344;2022-07-22T11:40:03;6.20;;;2.47;;
70312;SDS011;57723;51.698;5.344;2022-07-22T11:42:29;4.82;;;2.83;;
70312;SDS011;57723;51.698;5.344;2022-07-22T11:45:03;5.00;;;2.83;;
70312;SDS011;57723;51.698;5.344;2022-07-22T11:47:31;7.47;;;2.97;;
70312;SDS011;57723;51.698;5.344;2022-07-22T11:49:56;7.30;;;3.40;;
70312;SDS011;57723;51.698;5.344;2022-07-22T11:52:27;8.63;;;3.20;;
70312;SDS011;57723;51.698;5.344;2022-07-22T11:54:53;7.18;;;3.10;;
70312;SDS011;57723;51.698;5.344;2022-07-22T11:57:18;5.40;;;2.90;;
70312;SDS011;57723;51.698;5.344;2022-07-22T11:59:46;6.97;;;2.70;;
70312;SDS011;57723;51.698;5.344;2022-07-22T12:02:17;5.05;;;2.70;;
70312;SDS011;57723;51.698;5.344;2022-07-22T12:04:50;8.77;;;2.77;;
70312;SDS011;57723;51.698;5.344;2022-07-22T12:07:16;12.35;;;3.50;;
70312;SDS011;57723;51.698;5.344;2022-07-22T12:09:42;9.65;;;3.83;;
70312;SDS011;57723;51.698;5.344;2022-07-22T12:12:08;10.90;;;4.60;;
70312;SDS011;57723;51.698;5.344;2022-07-22T12:14:46;8.93;;;3.60;;
70312;SDS011;57723;51.698;5.344;2022-07-22T12:17:20;9.65;;;4.20;;
70312;SDS011;57723;51.698;5.344;2022-07-22T12:19:51;9.25;;;4.43;;
70312;SDS011;57723;51.698;5.344;2022-07-22T12:22:21;7.30;;;3.20;;
70312;SDS011;57723;51.698;5.344;2022-07-22T12:24:56;8.43;;;3.63;;
70312;SDS011;57723;51.698;5.344;2022-07-22T12:27:23;13.15;;;4.88;;
70312;SDS011;57723;51.698;5.344;2022-07-22T12:29:49;8.43;;;4.50;;
70312;SDS011;57723;51.698;5.344;2022-07-22T12:40:03;10.57;;;4.35;;
70312;SDS011;57723;51.698;5.344;2022-07-22T12:42:30;9.60;;;3.85;;
70312;SDS011;57723;51.698;5.344;2022-07-22T12:45:00;7.07;;;3.13;;
70312;SDS011;57723;51.698;5.344;2022-07-22T12:50:23;9.13;;;3.90;;
70312;SDS011;57723;51.698;5.344;2022-07-22T12:52:50;13.32;;;4.90;;
70312;SDS011;57723;51.698;5.344;2022-07-22T12:55:16;6.38;;;4.00;;
70312;SDS011;57723;51.698;5.344;2022-07-22T12:57:41;6.30;;;3.80;;
70312;SDS011;57723;51.698;5.344;2022-07-22T13:00:07;6.50;;;3.80;;
70312;SDS011;57723;51.698;5.344;2022-07-22T13:02:33;5.35;;;3.47;;
70312;SDS011;57723;51.698;5.344;2022-07-22T13:04:59;8.43;;;4.15;;
70312;SDS011;57723;51.698;5.344;2022-07-22T13:07:24;6.07;;;3.67;;
70312;SDS011;57723;51.698;5.344;2022-07-22T13:09:53;7.20;;;3.80;;
70312;SDS011;57723;51.698;5.344;2022-07-22T13:12:18;8.00;;;3.20;;
70312;SDS011;57723;51.698;5.344;2022-07-22T13:14:43;12.60;;;4.07;;
70312;SDS011;57723;51.698;5.344;2022-07-22T13:17:08;7.40;;;2.80;;
70312;SDS011;57723;51.698;5.344;2022-07-22T13:19:37;8.67;;;3.00;;
70312;SDS011;57723;51.698;5.344;2022-07-22T13:22:07;7.93;;;2.88;;
70312;SDS011;57723;51.698;5.344;2022-07-22T13:24:34;6.22;;;2.63;;
70312;SDS011;57723;51.698;5.344;2022-07-22T13:27:00;9.50;;;2.92;;
70312;SDS011;57723;51.698;5.344;2022-07-22T13:29:25;7.60;;;2.90;;
70312;SDS011;57723;51.698;5.344;2022-07-22T13:31:50;9.97;;;2.60;;
70312;SDS011;57723;51.698;5.344;2022-07-22T13:34:16;5.97;;;2.70;;
70312;SDS011;57723;51.698;5.344;2022-07-22T13:36:42;5.95;;;3.13;;
70312;SDS011;57723;51.698;5.344;2022-07-22T13:39:07;7.40;;;3.00;;
70312;SDS011;57723;51.698;5.344;2022-07-22T13:41:33;11.60;;;5.83;;
70312;SDS011;57723;51.698;5.344;2022-07-22T13:44:05;12.00;;;4.60;;
70312;SDS011;57723;51.698;5.344;2022-07-22T13:46:33;9.52;;;3.92;;
70312;SDS011;57723;51.698;5.344;2022-07-22T13:48:58;14.57;;;4.18;;
70312;SDS011;57723;51.698;5.344;2022-07-22T13:51:26;10.43;;;3.50;;
70312;SDS011;57723;51.698;5.344;2022-07-22T13:53:51;6.30;;;3.60;;
70312;SDS011;57723;51.698;5.344;2022-07-22T13:56:16;6.93;;;3.40;;
70312;SDS011;57723;51.698;5.344;2022-07-22T13:58:41;8.13;;;3.10;;
70312;SDS011;57723;51.698;5.344;2022-07-22T14:01:07;9.70;;;3.77;;
70312;SDS011;57723;51.698;5.344;2022-07-22T14:03:34;5.40;;;3.15;;
70312;SDS011;57723;51.698;5.344;2022-07-22T14:06:06;6.27;;;2.90;;
70312;SDS011;57723;51.698;5.344;2022-07-22T14:08:34;5.72;;;3.20;;
70312;SDS011;57723;51.698;5.344;2022-07-22T14:11:00;8.20;;;3.42;;
70312;SDS011;57723;51.698;5.344;2022-07-22T14:13:28;7.90;;;3.57;;
70312;SDS011;57723;51.698;5.344;2022-07-22T14:15:55;6.85;;;3.33;;
70312;SDS011;57723;51.698;5.344;2022-07-22T14:18:21;7.33;;;4.07;;
70312;SDS011;57723;51.698;5.344;2022-07-22T14:20:46;8.43;;;4.00;;
70312;SDS011;57723;51.698;5.344;2022-07-22T14:23:18;7.55;;;4.03;;
70312;SDS011;57723;51.698;5.344;2022-07-22T14:25:48;6.43;;;3.45;;
70312;SDS011;57723;51.698;5.344;2022-07-22T14:28:13;7.20;;;3.90;;
70312;SDS011;57723;51.698;5.344;2022-07-22T14:30:38;9.83;;;4.03;;
70312;SDS011;57723;51.698;5.344;2022-07-22T14:33:03;8.10;;;4.07;;
70312;SDS011;57723;51.698;5.344;2022-07-22T14:35:29;9.83;;;5.00;;
70312;SDS011;57723;51.698;5.344;2022-07-22T14:37:54;9.20;;;4.37;;
70312;SDS011;57723;51.698;5.344;2022-07-22T14:40:19;8.60;;;3.80;;
70312;SDS011;57723;51.698;5.344;2022-07-22T14:42:44;8.53;;;4.10;;
70312;SDS011;57723;51.698;5.344;2022-07-22T14:45:10;8.07;;;4.30;;
70312;SDS011;57723;51.698;5.344;2022-07-22T14:47:36;7.73;;;4.17;;
70312;SDS011;57723;51.698;5.344;2022-07-22T14:50:01;8.68;;;4.43;;
70312;SDS011;57723;51.698;5.344;2022-07-22T14:52:26;9.38;;;4.55;;
70312;SDS011;57723;51.698;5.344;2022-07-22T14:54:52;6.95;;;3.80;;
70312;SDS011;57723;51.698;5.344;2022-07-22T14:57:17;10.27;;;4.17;;
70312;SDS011;57723;51.698;5.344;2022-07-22T14:59:42;8.23;;;4.07;;
70312;SDS011;57723;51.698;5.344;2022-07-22T15:02:07;6.83;;;3.47;;
70312;SDS011;57723;51.698;5.344;2022-07-22T15:04:33;5.77;;;3.30;;
70312;SDS011;57723;51.698;5.344;2022-07-22T15:06:58;7.33;;;3.57;;
70312;SDS011;57723;51.698;5.344;2022-07-22T15:09:23;6.70;;;3.80;;
70312;SDS011;57723;51.698;5.344;2022-07-22T15:11:48;7.40;;;3.30;;
70312;SDS011;57723;51.698;5.344;2022-07-22T15:14:14;9.03;;;4.07;;
70312;SDS011;57723;51.698;5.344;2022-07-22T15:16:39;7.07;;;3.70;;
70312;SDS011;57723;51.698;5.344;2022-07-22T15:19:04;6.33;;;3.60;;
70312;SDS011;57723;51.698;5.344;2022-07-22T15:21:29;5.03;;;3.43;;
70312;SDS011;57723;51.698;5.344;2022-07-22T15:23:56;5.45;;;3.40;;
70312;SDS011;57723;51.698;5.344;2022-07-22T15:26:21;6.93;;;3.67;;
70312;SDS011;57723;51.698;5.344;2022-07-22T15:28:46;7.23;;;3.40;;
70312;SDS011;57723;51.698;5.344;2022-07-22T15:31:12;7.47;;;3.20;;
70312;SDS011;57723;51.698;5.344;2022-07-22T15:33:37;6.33;;;3.03;;